createdAt,value
2022-10-18T00:02:34.060Z,60.93
2022-10-18T00:05:36.311Z,60.93
2022-10-18T00:08:39.036Z,61.03
2022-10-18T00:11:41.129Z,61.09
2022-10-18T00:14:43.200Z,61.15
2022-10-18T00:17:45.216Z,61.23
2022-10-18T00:20:56.156Z,61.24
2022-10-18T00:23:58.354Z,61.31
2022-10-18T00:27:00.440Z,61.32
2022-10-18T00:30:02.523Z,61.40
2022-10-18T00:33:04.621Z,61.40
2022-10-18T00:36:07.017Z,61.34
2022-10-18T00:39:14.275Z,61.28
2022-10-18T00:42:21.508Z,61.20
2022-10-18T00:45:24.850Z,61.21
2022-10-18T00:48:27.132Z,61.18
2022-10-18T00:51:35.101Z,61.10
2022-10-18T00:54:41.072Z,61.18
2022-10-18T00:57:44.546Z,61.17
2022-10-18T01:00:46.813Z,61.11
2022-10-18T01:03:50.001Z,61.09
2022-10-18T01:07:14.225Z,61.09
2022-10-18T01:10:30.005Z,61.12
2022-10-18T01:13:56.753Z,61.09
2022-10-18T01:17:09.611Z,61.04
2022-10-18T01:20:38.737Z,60.98
2022-10-18T01:24:10.927Z,60.97
2022-10-18T01:27:40.772Z,60.98
2022-10-18T01:30:54.745Z,60.99
2022-10-18T01:34:04.183Z,61.00
2022-10-18T01:37:11.619Z,61.11
2022-10-18T01:40:15.332Z,61.02
2022-10-18T01:43:18.998Z,61.12
2022-10-18T01:46:24.330Z,61.18
2022-10-18T01:49:27.008Z,61.24
2022-10-18T01:52:29.273Z,61.22
2022-10-18T01:55:43.978Z,61.21
2022-10-18T01:58:48.925Z,61.14
2022-10-18T02:02:00.714Z,61.16
2022-10-18T02:05:22.644Z,61.21
2022-10-18T02:08:30.691Z,61.25
2022-10-18T02:11:34.537Z,61.26
2022-10-18T02:14:37.490Z,61.32
2022-10-18T02:17:40.765Z,61.41
2022-10-18T02:20:42.832Z,61.42
2022-10-18T02:23:46.482Z,61.43
2022-10-18T02:26:48.481Z,61.49
2022-10-18T02:29:51.326Z,61.54
2022-10-18T02:33:15.088Z,61.55
2022-10-18T02:36:25.441Z,61.60
2022-10-18T02:39:34.016Z,61.64
2022-10-18T02:42:38.129Z,61.69
2022-10-18T02:45:40.490Z,61.70
2022-10-18T02:48:42.508Z,61.76
2022-10-18T02:51:44.523Z,61.81
2022-10-18T02:54:46.548Z,61.86
2022-10-18T02:57:48.652Z,61.93
2022-10-18T03:00:51.045Z,61.94
2022-10-18T03:03:53.325Z,61.91
2022-10-18T03:06:55.325Z,61.94
2022-10-18T03:09:57.369Z,61.96
2022-10-18T03:12:59.568Z,61.96
2022-10-18T03:16:02.078Z,61.96
2022-10-18T03:19:04.296Z,62.06
2022-10-18T03:22:06.350Z,62.04
2022-10-18T03:25:08.594Z,62.15
2022-10-18T03:28:10.597Z,62.21
2022-10-18T03:31:12.738Z,62.21
2022-10-18T03:34:16.227Z,62.23
2022-10-18T03:37:18.297Z,62.18
2022-10-18T03:40:20.641Z,62.25
2022-10-18T03:43:23.217Z,62.19
2022-10-18T03:46:25.221Z,62.29
2022-10-18T03:49:27.285Z,62.32
2022-10-18T03:52:29.690Z,62.28
2022-10-18T03:55:32.022Z,62.28
2022-10-18T04:01:41.010Z,62.31
2022-10-18T04:04:43.087Z,62.37
2022-10-18T04:07:45.141Z,62.31
2022-10-18T04:10:47.720Z,62.37
2022-10-18T04:13:50.328Z,62.34
2022-10-18T04:16:52.350Z,62.41
2022-10-18T04:19:54.365Z,62.37
2022-10-18T04:22:57.733Z,62.40
2022-10-18T04:25:59.699Z,62.35
2022-10-18T04:29:01.801Z,62.40
2022-10-18T04:32:04.005Z,62.42
2022-10-18T04:35:07.252Z,62.39
2022-10-18T04:38:09.563Z,62.44
2022-10-18T04:41:11.541Z,62.43
2022-10-18T04:44:13.675Z,62.49
2022-10-18T04:47:16.423Z,62.50
2022-10-18T04:50:18.548Z,62.57
2022-10-18T04:53:20.824Z,62.54
2022-10-18T04:56:22.863Z,62.51
2022-10-18T04:59:24.908Z,62.53
2022-10-18T05:02:26.946Z,62.53
2022-10-18T05:05:49.717Z,62.59
2022-10-18T05:08:50.979Z,62.59
2022-10-18T05:11:52.983Z,62.59
2022-10-18T05:14:56.777Z,62.60
2022-10-18T05:17:58.904Z,62.70
2022-10-18T05:21:01.014Z,62.64
2022-10-18T05:24:03.100Z,62.61
2022-10-18T05:27:05.068Z,62.68
2022-10-18T05:30:07.699Z,62.73
2022-10-18T05:33:10.134Z,62.73
2022-10-18T05:36:12.259Z,62.76
2022-10-18T05:39:14.287Z,62.76
2022-10-18T05:42:16.294Z,62.76
2022-10-18T05:45:18.410Z,62.82
2022-10-18T05:48:20.425Z,62.85
2022-10-18T05:51:22.456Z,62.89
2022-10-18T05:54:24.597Z,62.89
2022-10-18T05:57:26.702Z,62.92
2022-10-18T06:00:29.217Z,62.98
2022-10-18T06:03:31.804Z,62.96
2022-10-18T06:06:34.462Z,62.98
2022-10-18T06:09:36.977Z,62.97
2022-10-18T06:12:39.016Z,63.02
2022-10-18T06:15:41.003Z,63.05
2022-10-18T06:18:43.479Z,63.12
2022-10-18T06:21:45.521Z,63.15
2022-10-18T06:24:47.528Z,63.10
2022-10-18T06:27:49.695Z,63.10
2022-10-18T06:30:51.966Z,63.21
2022-10-18T06:33:55.546Z,63.29
2022-10-18T06:36:58.805Z,63.38
2022-10-18T06:40:00.981Z,63.41
2022-10-18T06:43:20.078Z,63.42
2022-10-18T06:46:22.599Z,63.43
2022-10-18T06:49:24.645Z,63.40
2022-10-18T06:52:26.754Z,63.42
2022-10-18T06:55:29.899Z,63.48
2022-10-18T06:58:35.693Z,63.44
2022-10-18T07:01:37.763Z,63.43
2022-10-18T07:04:39.815Z,63.53
2022-10-18T07:07:41.864Z,63.63
2022-10-18T07:10:50.935Z,63.73
2022-10-18T07:13:56.968Z,63.76
2022-10-18T07:17:00.083Z,63.97
2022-10-18T07:20:04.242Z,63.94
2022-10-18T07:23:08.596Z,64.00
2022-10-18T07:26:23.036Z,64.27
2022-10-18T07:29:25.258Z,64.40
2022-10-18T07:32:27.353Z,64.50
2022-10-18T07:35:29.544Z,64.59
2022-10-18T07:38:32.058Z,64.75
2022-10-18T07:41:34.716Z,64.76
2022-10-18T07:44:36.797Z,64.85
2022-10-18T07:47:38.990Z,64.90
2022-10-18T07:50:41.471Z,64.89
2022-10-18T07:53:43.710Z,64.88
2022-10-18T07:56:45.775Z,64.93
2022-10-18T07:59:48.263Z,65.01
2022-10-18T08:02:55.368Z,65.11
2022-10-18T08:05:57.563Z,65.03
2022-10-18T08:08:59.690Z,64.96
2022-10-18T08:12:01.678Z,64.89
2022-10-18T08:18:33.987Z,64.83
2022-10-18T08:21:36.017Z,64.57
2022-10-18T08:24:38.021Z,64.34
2022-10-18T08:27:40.027Z,64.21
2022-10-18T08:30:42.132Z,64.08
2022-10-18T08:33:45.397Z,63.98
2022-10-18T08:36:47.447Z,63.97
2022-10-18T08:39:49.712Z,63.99
2022-10-18T08:43:07.077Z,64.05
2022-10-18T08:46:12.448Z,64.00
2022-10-18T08:49:46.640Z,64.05
2022-10-18T08:53:11.605Z,64.00
2022-10-18T08:56:21.499Z,64.03
2022-10-18T08:59:25.482Z,64.09
2022-10-18T09:02:51.846Z,64.24
2022-10-18T09:06:10.042Z,64.17
2022-10-18T09:09:28.717Z,64.12
2022-10-18T09:12:52.899Z,64.08
2022-10-18T09:16:04.811Z,64.12
2022-10-18T09:19:19.188Z,64.25
2022-10-18T09:22:41.060Z,64.27
2022-10-18T09:25:52.015Z,64.32
2022-10-18T09:29:00.015Z,64.40
2022-10-18T09:32:25.407Z,64.41
2022-10-18T09:35:42.134Z,64.43
2022-10-18T09:38:49.834Z,64.46
2022-10-18T09:42:07.449Z,64.49
2022-10-18T09:45:24.526Z,64.41
2022-10-18T09:48:50.059Z,64.39
2022-10-18T09:51:53.496Z,64.38
2022-10-18T09:55:02.935Z,64.26
2022-10-18T09:58:07.967Z,64.23
2022-10-18T10:01:11.899Z,64.43
2022-10-18T10:04:15.340Z,64.47
2022-10-18T10:07:28.675Z,64.55
2022-10-18T10:10:34.958Z,64.62
2022-10-18T10:13:36.990Z,64.61
2022-10-18T10:16:54.551Z,64.84
2022-10-18T10:20:14.814Z,64.74
2022-10-18T10:23:37.253Z,64.85
2022-10-18T10:26:39.303Z,64.84
2022-10-18T10:29:47.246Z,64.89
2022-10-18T10:32:50.875Z,64.88
2022-10-18T10:35:59.594Z,64.92
2022-10-18T10:39:16.112Z,64.99
2022-10-18T10:42:18.208Z,64.87
2022-10-18T10:45:22.076Z,64.75
2022-10-18T10:48:27.789Z,63.79
2022-10-18T10:51:34.230Z,63.24
2022-10-18T10:54:39.007Z,62.74
2022-10-18T10:57:46.041Z,63.19
2022-10-18T11:00:48.069Z,63.41
2022-10-18T11:03:52.987Z,63.50
2022-10-18T11:07:06.243Z,63.53
2022-10-18T11:10:17.651Z,63.42
2022-10-18T11:13:39.455Z,62.45
2022-10-18T11:17:19.128Z,62.46
2022-10-18T11:20:53.468Z,62.63
2022-10-18T11:23:57.206Z,63.05
2022-10-18T11:27:10.580Z,63.53
2022-10-18T11:30:27.827Z,63.88
2022-10-18T11:34:07.495Z,62.33
2022-10-18T11:37:34.632Z,61.01
2022-10-18T11:40:51.999Z,61.14
2022-10-18T11:44:04.148Z,61.62
2022-10-18T11:47:31.936Z,62.17
2022-10-18T11:51:01.359Z,60.26
2022-10-18T11:54:29.019Z,60.44
2022-10-18T11:57:59.924Z,59.73
2022-10-18T12:01:24.609Z,59.69
2022-10-18T12:04:40.923Z,59.64
2022-10-18T12:08:13.181Z,59.61
2022-10-18T12:11:20.514Z,58.94
2022-10-18T12:14:37.689Z,59.51
2022-10-18T12:17:50.025Z,59.52
2022-10-18T12:20:56.260Z,59.94
2022-10-18T12:24:18.276Z,59.99
2022-10-18T12:27:36.493Z,60.10
2022-10-18T12:30:54.270Z,60.47
2022-10-18T12:34:00.328Z,60.76
2022-10-18T12:37:05.335Z,60.93
2022-10-18T12:40:24.444Z,60.56
2022-10-18T12:43:38.435Z,60.60
2022-10-18T12:47:01.513Z,60.35
2022-10-18T12:50:08.091Z,60.08
2022-10-18T12:53:10.083Z,59.94
2022-10-18T12:56:33.034Z,60.55
2022-10-18T12:59:40.205Z,60.47
2022-10-18T13:02:42.252Z,60.54
2022-10-18T13:05:57.924Z,60.66
2022-10-18T13:09:20.866Z,61.21
2022-10-18T13:12:22.844Z,61.69
2022-10-18T13:15:48.991Z,61.94
2022-10-18T13:18:58.397Z,61.90
2022-10-18T13:22:18.867Z,62.09
2022-10-18T13:25:35.397Z,61.75
2022-10-18T13:29:02.822Z,61.23
2022-10-18T13:32:22.515Z,61.43
2022-10-18T13:35:54.844Z,61.52
2022-10-18T13:38:59.669Z,61.99
2022-10-18T13:42:01.720Z,62.14
2022-10-18T13:45:32.046Z,61.95
2022-10-18T13:48:34.031Z,61.25
2022-10-18T13:51:36.038Z,61.27
2022-10-18T13:55:12.815Z,60.77
2022-10-18T13:58:49.010Z,60.58
2022-10-18T14:02:36.410Z,60.87
2022-10-18T14:06:01.223Z,61.15
2022-10-18T14:09:25.987Z,61.15
2022-10-18T14:12:52.244Z,60.94
2022-10-18T14:16:03.869Z,60.82
2022-10-18T14:19:31.097Z,60.89
2022-10-18T14:22:47.549Z,61.18
2022-10-18T14:25:49.808Z,60.84
2022-10-18T14:29:06.208Z,60.81
2022-10-18T14:32:28.419Z,60.67
2022-10-18T14:35:33.635Z,61.12
2022-10-18T14:38:38.167Z,61.33
2022-10-18T14:41:52.566Z,61.50
2022-10-18T14:44:56.443Z,61.89
2022-10-18T14:48:16.783Z,61.86
2022-10-18T14:51:20.593Z,62.02
2022-10-18T14:54:36.167Z,61.97
2022-10-18T14:57:38.415Z,62.11
2022-10-18T15:00:41.896Z,62.29
2022-10-18T15:03:46.650Z,62.44
2022-10-18T15:06:49.849Z,62.39
2022-10-18T15:09:53.347Z,62.45
2022-10-18T15:13:10.924Z,62.37
2022-10-18T15:16:18.496Z,62.54
2022-10-18T15:19:39.224Z,62.70
2022-10-18T15:22:41.528Z,62.79
2022-10-18T15:25:43.723Z,62.82
2022-10-18T15:28:52.872Z,63.03
2022-10-18T15:31:55.622Z,63.07
2022-10-18T15:35:09.872Z,63.09
2022-10-18T15:38:31.919Z,63.02
2022-10-18T15:41:46.213Z,63.08
2022-10-18T15:44:53.396Z,63.16
2022-10-18T15:48:01.837Z,63.12
2022-10-18T15:51:12.437Z,63.18
2022-10-18T15:54:19.267Z,63.67
2022-10-18T15:57:21.420Z,64.24
2022-10-18T16:00:23.410Z,63.60
2022-10-18T16:03:25.703Z,63.65
2022-10-18T16:06:28.090Z,63.59
2022-10-18T16:09:30.284Z,64.14
2022-10-18T16:12:32.821Z,64.13
2022-10-18T16:15:38.999Z,64.08
2022-10-18T16:18:41.416Z,64.44
2022-10-18T16:21:43.767Z,64.27
2022-10-18T16:24:46.102Z,64.24
2022-10-18T16:27:48.320Z,64.44
2022-10-18T16:30:57.652Z,64.50
2022-10-18T16:34:00.911Z,64.51
2022-10-18T16:37:03.020Z,65.04
2022-10-18T16:40:31.573Z,65.49
2022-10-18T16:43:34.659Z,65.76
2022-10-18T16:46:37.109Z,65.87
2022-10-18T16:49:39.776Z,65.88
2022-10-18T16:52:42.067Z,66.01
2022-10-18T16:55:44.261Z,66.35
2022-10-18T16:58:46.766Z,66.40
2022-10-18T17:01:48.795Z,66.37
2022-10-18T17:04:50.970Z,66.44
2022-10-18T17:07:52.975Z,66.43
2022-10-18T17:10:58.638Z,66.49
2022-10-18T17:14:00.934Z,66.43
2022-10-18T17:17:02.975Z,66.37
2022-10-18T17:20:07.336Z,66.32
2022-10-18T17:23:09.856Z,66.33
2022-10-18T17:26:29.015Z,66.17
2022-10-18T17:29:31.910Z,65.94
2022-10-18T17:32:34.025Z,65.71
2022-10-18T17:35:36.239Z,65.51
2022-10-18T17:38:38.317Z,65.37
2022-10-18T17:41:40.346Z,65.21
2022-10-18T17:44:43.182Z,65.08
2022-10-18T17:47:45.416Z,65.04
2022-10-18T17:50:47.461Z,64.98
2022-10-18T17:53:49.451Z,64.95
2022-10-18T17:56:53.816Z,64.95
2022-10-18T17:59:58.647Z,64.93
2022-10-18T18:03:01.449Z,64.93
2022-10-18T18:06:16.415Z,64.92
2022-10-18T18:09:19.166Z,64.90
2022-10-18T18:12:21.229Z,64.87
2022-10-18T18:15:23.452Z,64.89
2022-10-18T18:18:25.701Z,64.90
2022-10-18T18:21:28.328Z,64.93
2022-10-18T18:24:31.017Z,64.98
2022-10-18T18:27:33.187Z,64.99
2022-10-18T18:30:38.956Z,65.00
2022-10-18T18:33:41.581Z,64.96
2022-10-18T18:36:44.366Z,64.91
2022-10-18T18:39:46.457Z,64.92
2022-10-18T18:43:07.302Z,64.87
2022-10-18T18:46:12.698Z,64.82
2022-10-18T18:49:15.098Z,64.85
2022-10-18T18:52:17.342Z,64.85
2022-10-18T18:55:19.574Z,64.83
2022-10-18T18:58:21.686Z,64.84
2022-10-18T19:01:26.770Z,64.86
2022-10-18T19:04:29.463Z,64.83
2022-10-18T19:07:32.175Z,64.83
2022-10-18T19:10:34.779Z,64.83
2022-10-18T19:13:37.295Z,64.81
2022-10-18T19:16:46.814Z,64.81
2022-10-18T19:19:48.893Z,64.83
2022-10-18T19:22:51.529Z,64.82
2022-10-18T19:25:53.869Z,64.79
2022-10-18T19:29:00.414Z,64.82
2022-10-18T19:32:05.365Z,64.81
2022-10-18T19:35:07.867Z,64.75
2022-10-18T19:38:10.247Z,64.75
2022-10-18T19:41:12.572Z,64.79
2022-10-18T19:44:14.957Z,64.82
2022-10-18T19:47:17.200Z,64.84
2022-10-18T19:50:19.463Z,64.81
2022-10-18T19:53:21.548Z,64.82
2022-10-18T19:56:25.211Z,64.81
2022-10-18T19:59:27.504Z,64.71
2022-10-18T20:02:29.497Z,64.69
2022-10-18T20:05:31.688Z,64.74
2022-10-18T20:08:35.231Z,64.77
2022-10-18T20:11:37.870Z,64.81
2022-10-18T20:14:39.872Z,64.81
2022-10-18T20:17:41.973Z,64.79
2022-10-18T20:20:47.357Z,64.79
2022-10-18T20:23:50.306Z,64.82
2022-10-18T20:29:59.395Z,64.79
2022-10-18T20:33:01.451Z,64.79
2022-10-18T20:36:17.648Z,64.81
2022-10-18T20:39:19.712Z,64.79
2022-10-18T20:42:21.813Z,64.79
2022-10-18T20:45:23.997Z,64.80
2022-10-18T20:48:27.267Z,64.76
2022-10-18T20:51:29.452Z,64.79
2022-10-18T20:54:31.447Z,64.79
2022-10-18T20:57:36.413Z,64.77
2022-10-18T21:00:38.934Z,64.75
2022-10-18T21:03:43.315Z,64.74
2022-10-18T21:06:45.679Z,64.72
2022-10-18T21:09:47.753Z,64.75
2022-10-18T21:12:49.905Z,64.71
2022-10-18T21:15:56.640Z,64.71
2022-10-18T21:19:06.822Z,64.69
2022-10-18T21:22:08.940Z,64.67
2022-10-18T21:25:11.262Z,64.69
2022-10-18T21:28:14.044Z,64.66
2022-10-18T21:31:18.812Z,64.64
2022-10-18T21:34:21.203Z,64.66
2022-10-18T21:37:23.202Z,64.66
2022-10-18T21:40:25.477Z,64.67
2022-10-18T21:43:27.683Z,64.63
2022-10-18T21:46:29.847Z,64.65
2022-10-18T21:49:35.175Z,64.62
2022-10-18T21:52:38.032Z,64.61
2022-10-18T21:55:40.149Z,64.61
2022-10-18T21:58:44.475Z,64.59
2022-10-18T22:01:46.655Z,64.63
2022-10-18T22:04:49.957Z,64.59
2022-10-18T22:07:52.120Z,64.60
2022-10-18T22:10:54.446Z,64.57
2022-10-18T22:13:56.833Z,64.55
2022-10-18T22:16:59.074Z,64.56
2022-10-18T22:20:01.207Z,64.54
2022-10-18T22:23:03.328Z,64.58
2022-10-18T22:26:08.403Z,64.59
2022-10-18T22:29:19.581Z,64.54
2022-10-18T22:32:21.890Z,64.56
2022-10-18T22:35:24.072Z,64.56
2022-10-18T22:38:26.250Z,64.55
2022-10-18T22:41:28.565Z,64.58
2022-10-18T22:44:30.750Z,64.55
2022-10-18T22:47:33.371Z,64.55
2022-10-18T22:50:35.652Z,64.53
2022-10-18T22:53:39.334Z,64.57
2022-10-18T22:56:43.732Z,64.59
2022-10-18T22:59:45.997Z,64.56
2022-10-18T23:02:50.033Z,64.59
2022-10-18T23:05:52.031Z,64.56
2022-10-18T23:08:56.173Z,64.59
2022-10-18T23:11:58.219Z,64.57
2022-10-18T23:15:00.229Z,64.63
2022-10-18T23:18:02.666Z,64.59
2022-10-18T23:21:07.126Z,64.63
2022-10-18T23:24:09.213Z,64.64
2022-10-18T23:27:11.437Z,64.60
2022-10-18T23:30:13.550Z,64.66
2022-10-18T23:33:15.561Z,64.67
2022-10-18T23:36:18.193Z,64.63
2022-10-18T23:39:20.336Z,64.62
2022-10-18T23:42:22.350Z,64.65
2022-10-18T23:45:24.489Z,64.63
2022-10-18T23:48:26.787Z,64.63
2022-10-18T23:51:28.789Z,64.64
2022-10-18T23:54:30.802Z,64.64
2022-10-18T23:57:33.159Z,64.69
